Terminal Aerodrome Forecast
Issued by NWS Buffalo, NY

Home | Current Version | Previous Version | Text Only | Print | Product List | Glossary On
Versions: 1 2 3 4 5 6 7 8 9 10 11 12 13 14 15 16 17 18 19 20 21 22 23 24 25 26 27
000
FTUS41 KBUF 180500
TAFART
TAF
KART 180523Z 1806/1906 26013KT P6SM SCT019 BKN025 OVC045
     FM180700 27012G18KT 5SM -SHSNRA OVC020
     FM180900 27012KT P6SM VCSH OVC020
     FM181200 28011KT 5SM -SHSN OVC020
     FM181700 29008KT P6SM VCSH OVC030
     FM182200 30006KT P6SM OVC035
     FM190200 32005KT P6SM OVC050
     FM190500 33005KT P6SM OVC045=

USA.gov is the U.S. government's official web portal to all federal, state and local government web resources and services.